Flight Track Log - Related Links

Times and Time Zones

All times are in EST time to prevent confusion due to time zone crossing. See the N682RW flight status page for this flight to view local times or setup timezone preferences in your user account.

Time Position Orientation Groundspeed Altitude Reporting Facility
EST Latitude Longitude Course Direction KTS MPH feet Rate Location/Type
Mon 03:08:31 PM 42.2050 -83.3528 192° South 160 184 1,100  Level Cleveland Center
Mon 03:09:14 PM 42.1708 -83.3622 192° South 210 242 2,700 2,571 Climbing Cleveland Center
Mon 03:10:02 PM 42.1250 -83.3711 188° South 216 249 5,000 2,687 Climbing Cleveland Center
Mon 03:10:21 PM 42.0986 -83.3744 185° South 257 296 5,700 2,903 Climbing Cleveland Center
Mon 03:11:04 PM 42.0500 -83.3725 178° South 259 298 8,000 2,857 Climbing Cleveland Center
Mon 03:12:06 PM 41.9747 -83.3631 175° South 282 325 10,700 2,613 Climbing Cleveland Center
Mon 03:13:08 PM 41.8797 -83.3569 177° South 320 368 13,400 2,758 Climbing Cleveland Center
Mon 03:14:10 PM 41.7867 -83.3497 177° South 333 383 16,400 2,516 Climbing Cleveland Center
Mon 03:15:12 PM 41.6922 -83.3431 177° South 337 388 18,600 2,613 Climbing Cleveland Center
Mon 03:16:14 PM 41.5800 -83.3347 177° South 336 387 21,800 2,256 Climbing Cleveland Center
Mon 03:17:17 PM 41.4931 -83.3514 188° South 317 365 23,300 1,392 Climbing Cleveland Center
Mon 03:18:19 PM 41.4150 -83.3986 204° Southwest 308 354 24,700 1,355 Climbing Cleveland Center
Mon 03:19:21 PM 41.3339 -83.4444 203° Southwest 316 364 26,100 1,306 Climbing Cleveland Center
Mon 03:20:23 PM 41.2506 -83.4922 203° Southwest 324 373 27,400 1,306 Climbing Cleveland Center
Mon 03:21:25 PM 41.1661 -83.5428 204° Southwest 331 381 28,800 1,452 Climbing Cleveland Center
Mon 03:22:27 PM 41.0675 -83.5981 203° Southwest 327 376 30,400 1,282 Climbing Cleveland Center
Mon 03:23:08 PM 41.0178 -83.6289 205° Southwest 328 377 31,000 932 Climbing Indianapolis Center
Mon 03:24:10 PM 40.9219 -83.6458 188° South 365 420 32,000 484 Climbing Indianapolis Center
Mon 03:25:12 PM 40.8214 -83.6494 182° South 362 417 32,000  Level Indianapolis Center
Mon 03:26:14 PM 40.6983 -83.6561 182° South 367 422 32,000  Level Indianapolis Center
Mon 03:27:16 PM 40.5967 -83.6617 182° South 368 423 32,000  Level Indianapolis Center
Mon 03:28:17 PM 40.4942 -83.6678 183° South 368 423 32,000  Level Indianapolis Center
Mon 03:29:19 PM 40.3917 -83.6722 182° South 369 425 32,000  Level Indianapolis Center
Mon 03:30:21 PM 40.2903 -83.6789 183° South 367 422 32,000  Level Indianapolis Center
Mon 03:31:23 PM 40.1867 -83.6833 182° South 371 427 32,000  Level Indianapolis Center
Mon 03:32:25 PM 40.0639 -83.6900 182° South 371 427 32,000  Level Indianapolis Center
Mon 03:33:26 PM 39.9614 -83.6958 182° South 373 429 32,000  Level Indianapolis Center
Mon 03:34:28 PM 39.8594 -83.7006 182° South 373 429 32,000  Level Indianapolis Center
Mon 03:35:30 PM 39.7578 -83.7072 183° South 372 428 32,000  Level Indianapolis Center
Mon 03:36:32 PM 39.6547 -83.7119 182° South 375 432 32,000  Level Indianapolis Center
Mon 03:37:34 PM 39.5289 -83.7178 182° South 379 436 32,000  Level Indianapolis Center
Mon 03:38:36 PM 39.4236 -83.7231 182° South 380 437 32,000  Level Indianapolis Center
Mon 03:39:37 PM 39.3194 -83.7289 182° South 377 434 32,000 195 Level Indianapolis Center
Mon 03:40:39 PM 39.2156 -83.7336 182° South 376 433 32,400 484 Climbing Indianapolis Center
Mon 03:41:41 PM 39.1119 -83.7389 182° South 373 429 33,000 290 Climbing Indianapolis Center
Mon 03:42:43 PM 39.0069 -83.7442 182° South 378 435 33,000  Level Indianapolis Center
Mon 03:43:45 PM 38.8828 -83.7506 182° South 374 430 33,000  Level Indianapolis Center
Mon 03:44:47 PM 38.7778 -83.7564 182° South 378 435 33,000  Level Indianapolis Center
Mon 03:45:48 PM 38.6736 -83.7603 182° South 376 433 33,000  Level Indianapolis Center
Mon 03:46:50 PM 38.5614 -83.7678 183° South 379 436 33,000  Level Indianapolis Center
Mon 03:47:52 PM 38.4558 -83.7719 182° South 379 436 33,000  Level Indianapolis Center
Mon 03:48:53 PM 38.3500 -83.7775 182° South 379 436 33,000  Level Indianapolis Center
Mon 03:49:55 PM 38.2450 -83.7825 182° South 378 435 33,000  Level Indianapolis Center
Mon 03:50:57 PM 38.1383 -83.7883 182° South 383 441 33,000  Level Indianapolis Center
Mon 03:51:59 PM 38.0139 -83.7956 183° South 383 441 33,000  Level Indianapolis Center
Mon 03:53:00 PM 37.9081 -83.7992 182° South 381 438 33,000  Level Indianapolis Center
Mon 03:54:02 PM 37.8022 -83.8042 182° South 381 438 33,000  Level Indianapolis Center
Mon 03:55:04 PM 37.6953 -83.8086 182° South 382 440 33,000  Level Indianapolis Center
Mon 03:56:05 PM 37.5883 -83.8142 182° South 384 442 33,000  Level Indianapolis Center
Mon 03:57:07 PM 37.4825 -83.8194 182° South 382 440 33,000  Level Indianapolis Center
Mon 03:58:09 PM 37.3575 -83.8258 182° South 384 442 33,000  Level Indianapolis Center
Mon 03:59:11 PM 37.2508 -83.8306 182° South 384 442 33,000  Level Indianapolis Center
Mon 04:00:12 PM 37.1425 -83.8367 183° South 388 447 33,000  Level Indianapolis Center
Mon 04:01:14 PM 37.0350 -83.8411 182° South 388 447 33,000  Level Indianapolis Center
Mon 04:02:16 PM 36.9256 -83.8458 182° South 393 452 33,000  Level Indianapolis Center
Mon 04:03:18 PM 36.8156 -83.8517 182° South 395 455 33,000  Level Indianapolis Center
Mon 04:04:19 PM 36.6878 -83.8578 182° South 395 455 33,000  Level Indianapolis Center
Mon 04:05:21 PM 36.5769 -83.8628 182° South 396 456 33,000  Level Indianapolis Center
Mon 04:06:23 PM 36.4725 -83.8678 182° South 398 458 33,000  Level Indianapolis Center
Mon 04:07:24 PM 36.3600 -83.8728 182° South 401 461 33,000  Level Indianapolis Center
Mon 04:08:26 PM 36.2489 -83.8781 182° South 399 459 33,000  Level Indianapolis Center
Mon 04:09:28 PM 36.1133 -83.8842 182° South 402 463 33,000  Level Indianapolis Center
Mon 04:10:13 PM 36.0414 -83.8897 184° South 401 461 33,000  Level Atlanta Center
Mon 04:11:13 PM 35.9289 -83.8950 182° South 401 461 33,000  Level Atlanta Center
Mon 04:12:13 PM 35.8119 -83.8569 165° South 416 479 33,000  Level Atlanta Center
Mon 04:13:13 PM 35.6972 -83.8008 158° South 426 490 33,000  Level Atlanta Center
Mon 04:14:13 PM 35.5803 -83.7475 160° South 441 507 33,000  Level Atlanta Center
Mon 04:15:13 PM 35.4653 -83.6944 159° South 446 513 33,000  Level Atlanta Center
Mon 04:16:13 PM 35.3483 -83.6442 161° South 446 513 33,000  Level Atlanta Center
Mon 04:17:13 PM 35.2333 -83.5911 159° South 446 513 33,000  Level Atlanta Center
Mon 04:18:13 PM 35.0997 -83.5336 161° South 454 522 33,000  Level Atlanta Center
Mon 04:19:13 PM 34.9847 -83.4811 159° South 454 522 33,000  Level Atlanta Center
Mon 04:20:13 PM 34.8717 -83.4286 159° South 448 516 33,000  Level Atlanta Center
Mon 04:21:13 PM 34.7567 -83.3764 160° South 447 514 33,000  Level Atlanta Center
Mon 04:22:13 PM 34.6519 -83.3292 160° South 447 514 33,000  Level Atlanta Center
Mon 04:23:13 PM 34.5328 -83.2747 159° South 451 519 33,000  Level Atlanta Center
Mon 04:24:13 PM 34.4219 -83.2256 160° South 444 511 33,000  Level Atlanta Center
Mon 04:25:13 PM 34.2942 -83.1689 160° South 439 505 33,000  Level Atlanta Center
Mon 04:26:13 PM 34.1747 -83.1172 160° South 450 518 33,000 -50 Level Atlanta Center
Mon 04:27:13 PM 34.0597 -83.0658 160° South 450 518 32,900 -350 Descending Atlanta Center
Mon 04:28:13 PM 33.9403 -83.0147 160° South 444 511 32,300 -450 Descending Atlanta Center
Mon 04:29:13 PM 33.8250 -82.9661 161° South 449 517 32,000 -150 Descending Atlanta Center
Mon 04:30:13 PM 33.7078 -82.9150 160° South 449 517 32,000  Level Atlanta Center
Mon 04:31:13 PM 33.5925 -82.8642 160° South 442 509 32,000  Level Atlanta Center
Mon 04:32:13 PM 33.4772 -82.8183 162° South 447 514 32,000  Level Atlanta Center
Mon 04:33:13 PM 33.3764 -82.7725 159° South 447 514 32,000  Level Atlanta Center
Mon 04:34:13 PM 33.2611 -82.7247 161° South 441 507 32,000  Level Atlanta Center
Mon 04:35:13 PM 33.1458 -82.6742 160° South 441 507 32,000  Level Atlanta Center
Mon 04:36:13 PM 33.0306 -82.6242 160° South 446 513 32,000  Level Atlanta Center
Mon 04:37:13 PM 32.9131 -82.5764 161° South 446 513 32,000  Level Atlanta Center
Mon 04:38:13 PM 32.8019 -82.5289 160° South 446 513 32,000  Level Atlanta Center
Mon 04:39:50 PM 32.5978 -82.4389 160° South 430 495 32,000  Level Jacksonville Center
Mon 04:40:50 PM 32.4786 -82.3903 161° South 440 506 32,000  Level Jacksonville Center
Mon 04:41:50 PM 32.3617 -82.3392 160° South 450 518 32,000  Level Jacksonville Center
Mon 04:42:50 PM 32.2486 -82.2786 156° South 450 518 32,000  Level Jacksonville Center
Mon 04:43:50 PM 32.1458 -82.2128 152° Southeast 456 525 32,000  Level Jacksonville Center
Mon 04:44:50 PM 32.0203 -82.1356 152° Southeast 463 533 32,000  Level Jacksonville Center
Mon 04:45:50 PM 31.8967 -82.0900 163° South 462 532 32,000  Level Jacksonville Center
Mon 04:46:50 PM 31.7900 -82.0494 162° South 462 532 32,000 350 Level Jacksonville Center
Mon 04:47:50 PM 31.6539 -81.9994 163° South 462 532 32,700 800 Climbing Jacksonville Center
Mon 04:48:50 PM 31.5347 -81.9542 162° South 462 532 33,600 650 Climbing Jacksonville Center
Mon 04:49:50 PM 31.4131 -81.9092 162° South 455 524 34,000 200 Climbing Jacksonville Center
Mon 04:50:50 PM 31.2897 -81.8642 163° South 461 531 34,000  Level Jacksonville Center
Mon 04:51:50 PM 31.1744 -81.8217 162° South 456 525 34,000  Level Jacksonville Center
Mon 04:52:50 PM 31.0572 -81.7769 162° South 438 504 34,000  Level Jacksonville Center
Mon 04:53:50 PM 30.9397 -81.7347 163° South 438 504 34,000  Level Jacksonville Center
Mon 04:54:50 PM 30.8203 -81.6903 162° South 445 512 34,000  Level Jacksonville Center
Mon 04:55:50 PM 30.7031 -81.6458 162° South 445 512 34,000  Level Jacksonville Center
Mon 04:56:50 PM 30.5836 -81.5992 161° South 445 512 34,000  Level Jacksonville Center
Mon 04:57:50 PM 30.4661 -81.5550 162° South 445 512 34,000  Level Jacksonville Center
Mon 04:58:50 PM 30.3447 -81.5133 163° South 445 512 34,000  Level Jacksonville Center
Mon 04:59:50 PM 30.2253 -81.4669 161° South 445 512 34,000  Level Jacksonville Center
Mon 05:00:50 PM 30.1056 -81.4208 162° South 445 512 34,000  Level Jacksonville Center
Mon 05:01:50 PM 29.9967 -81.3792 162° South 445 512 34,000  Level Jacksonville Center
Mon 05:02:50 PM 29.8750 -81.3333 162° South 445 512 34,000  Level Jacksonville Center
Mon 05:03:50 PM 29.7533 -81.2872 162° South 450 518 34,000  Level Jacksonville Center
Mon 05:04:50 PM 29.6317 -81.2439 163° South 456 525 34,000  Level Jacksonville Center
Mon 05:05:50 PM 29.5119 -81.1933 160° South 456 525 34,000  Level Jacksonville Center
Mon 05:06:50 PM 29.3925 -81.1503 163° South 461 531 34,000  Level Jacksonville Center
Mon 05:08:33 PM 29.1961 -81.0069 147° Southeast 459 528 34,000  Level Miami Center
Mon 05:09:33 PM 29.1011 -80.9011 136° Southeast 464 534 34,000  Level Miami Center
Mon 05:10:33 PM 29.0061 -80.7956 136° Southeast 475 547 34,000  Level Miami Center
Mon 05:11:33 PM 28.9111 -80.6881 135° Southeast 475 547 34,000  Level Miami Center
Mon 05:12:33 PM 28.8047 -80.6014 144° Southeast 475 547 34,000  Level Miami Center
Mon 05:13:33 PM 28.6978 -80.5456 155° Southeast 470 541 34,000  Level Miami Center
Mon 05:14:33 PM 28.5825 -80.4828 154° Southeast 463 533 34,000  Level Miami Center
Mon 05:15:33 PM 28.4569 -80.4103 153° Southeast 464 534 34,000  Level Miami Center
Mon 05:16:33 PM 28.3417 -80.3478 154° Southeast 464 534 34,000  Level Miami Center
Mon 05:17:33 PM 28.2264 -80.2828 154° Southeast 456 525 34,000  Level Miami Center
Mon 05:18:33 PM 28.1256 -80.2281 154° Southeast 456 525 34,000  Level Miami Center
Mon 05:19:33 PM 28.0100 -80.1633 154° Southeast 461 531 34,000 -400 Level Miami Center
Mon 05:20:33 PM 27.8797 -80.1150 162° South 454 522 33,200 -2,000 Descending Miami Center
Mon 05:21:33 PM 27.7597 -80.0694 161° South 454 522 30,000 -3,400 Descending Miami Center
Mon 05:22:33 PM 27.6353 -80.0236 162° South 459 528 26,400 -2,750 Descending Miami Center
Mon 05:23:33 PM 27.5194 -79.9783 161° South 453 521 24,500 -1,200 Descending Miami Center
Mon 05:24:33 PM 27.4075 -79.9356 161° South 441 507 24,000 -250 Descending Miami Center
Mon 05:25:33 PM 27.2958 -79.8906 160° South 431 496 24,000 -750 Level Miami Center
Mon 05:26:33 PM 27.1858 -79.8503 162° South 426 490 22,500 -1,900 Descending Miami Center
Mon 05:27:33 PM 27.0803 -79.8125 162° South 417 480 20,200 -2,350 Descending Miami Center
Mon 05:28:33 PM 26.9869 -79.7753 160° South 400 460 17,800 -2,250 Descending Miami Center
Mon 05:29:33 PM 26.8833 -79.7378 162° South 395 455 15,700 -1,750 Descending Miami Center
Mon 05:30:33 PM 26.7858 -79.6981 160° South 378 435 14,300 -1,850 Descending Miami Center
Mon 05:31:33 PM 26.6811 -79.7186 190° South 350 403 12,000 -1,850 Descending Miami Center
Mon 05:32:33 PM 26.6053 -79.7542 203° Southwest 344 396 10,600 -1,400 Descending Miami Center
Mon 05:33:33 PM 26.5272 -79.7917 203° Southwest 296 341 9,200 -1,333 Descending Miami Center
Mon 05:33:36 PM 26.5208 -79.7939 197° South 275 316 9,200 -1,138 Level Miami Center
Mon 05:34:31 PM 26.4556 -79.8222 201° Southwest 276 318 8,100 -1,158 Descending Miami Center
Mon 05:34:33 PM 26.4619 -79.8203 15° North 282 325 8,100 -122 Level Miami Center
Mon 05:35:20 PM 26.3964 -79.8533 204° Southwest 281 323 8,000 -100 Descending Miami Center
Mon 05:35:33 PM 26.3839 -79.8600 206° Southwest 282 325 8,000 -1,075 Level Miami Center
Mon 05:36:27 PM 26.3306 -79.9097 220° Southwest 279 321 6,800 -1,200 Descending Miami Center
Mon 05:36:33 PM 26.3219 -79.9164 215° Southwest 282 325 6,800 -787 Level Miami Center
Mon 05:37:28 PM 26.2686 -79.9706 222° Southwest 271 312 6,000 -800 Descending Miami Center
Mon 05:37:33 PM 26.2644 -79.9728 206° Southwest 282 325 6,000  Level Miami Center
Mon 05:38:30 PM 26.2111 -80.0222 220° Southwest 269 310 6,000  Level Miami Center
Mon 05:38:33 PM 26.2175 -80.0203 15° North 276 318 6,000  Level Miami Center
Mon 05:39:31 PM 26.1681 -80.0883 231° Southwest 259 298 6,000  Level Miami Center
Mon 05:39:33 PM 26.1703 -80.0792 75° East 271 312 6,000 -290 Level Miami Center
Mon 05:40:33 PM 26.1519 -80.1481 253° West 253 291 5,700 -750 Descending Miami Center
Mon 05:41:33 PM 26.1525 -80.2175 271° West 217 250 4,500 -879 Descending Miami Center
Mon 05:42:29 PM 26.1447 -80.2797 262° West 183 211 4,000 -500 Descending Miami Center
Mon 05:42:33 PM 26.1511 -80.2753 32° Northeast 211 243 4,000  Level Miami Center
Mon 05:43:30 PM 26.1475 -80.3378 266° West 186 214 4,000  Level Miami Center
Mon 05:43:33 PM 26.1497 -80.3356 42° Northeast 205 236 4,000 -590 Level Miami Center
Mon 05:44:31 PM 26.1319 -80.3858 249° West 176 203 3,400 -1,008 Descending Miami Center
Mon 05:45:32 PM 26.0819 -80.3775 171° South 168 193 2,000 -656 Descending Miami Center
Mon 05:46:39 PM 26.0747 -80.3217 98° East 165 190 2,000 -98 Level Miami Center
Mon 05:47:35 PM 26.0739 -80.2753 91° East 159 183 1,800 -410 Descending Miami Center
Mon 05:48:36 PM 26.0747 -80.2339 89° East 125 144 1,200 -634 Descending Miami Center
Mon 05:49:38 PM 26.0736 -80.1922 92° East 131 151 500 -677 Descending Miami Center
Mon 05:51:00 PM 26.0667 -80.1500 103° East  Level FlightAware Approximate
Mon 05:58:00 PM 26.0726 -80.1527 103° East  Level Estimated

Login

Don't have an account? Register now (free) for customized features, flight alerts, and more!